This is the latest recevied weather packets stored in our database for station/object K5OBH. If no packets are shown the sender has not sent any weather packets the latest 1 day(s).
| Time | Temp. | Humidity | Pressure | Rain* | Wind** | Luminosity | Snow |
|---|---|---|---|---|---|---|---|
| 1778029982 | 10° C | 83% | 1010.7 hPa | 0 mm | 3.58 m/s, 6° | 1 W/m² | - |
| 1778029680 | 10° C | 83% | 1010.7 hPa | 0 mm | 3.58 m/s, 38° | 1 W/m² | - |
| 1778029377 | 10.56° C | 83% | 1010.5 hPa | 0 mm | 1.34 m/s, 6° | 2 W/m² | - |
| 1778029074 | 10.56° C | 82% | 1010.6 hPa | 0 mm | 1.34 m/s, 20° | 4 W/m² | - |
| 1778028771 | 10° C | 82% | 1010.3 hPa | 0 mm | 3.58 m/s, 44° | 6 W/m² | - |
| 1778028466 | 10.56° C | 82% | 1010.1 hPa | 0 mm | 4.02 m/s, 21° | 7 W/m² | - |
| 1778028165 | 10.56° C | 81% | 1010 hPa | 0 mm | 4.02 m/s, 343° | 9 W/m² | - |
| 1778027861 | 10.56° C | 82% | 1010.2 hPa | 0 mm | 3.13 m/s, 5° | 10 W/m² | - |
| 1778027557 | 10.56° C | 81% | 1009.9 hPa | 0 mm | 2.68 m/s, 37° | 11 W/m² | - |
| 1778027254 | 10.56° C | 80% | 1009.9 hPa | 0 mm | 2.24 m/s, 43° | 13 W/m² | - |
| 1778026949 | 10.56° C | 80% | 1009.9 hPa | 0 mm | 2.24 m/s, 0° | 16 W/m² | - |
| 1778026646 | 10.56° C | 80% | 1009.6 hPa | 0 mm | 3.58 m/s, 345° | 23 W/m² | - |
| 1778026344 | 10.56° C | 80% | 1009.7 hPa | 0 mm | 3.58 m/s, 68° | 23 W/m² | - |
| 1778026040 | 10.56° C | 79% | 1009.7 hPa | 0 mm | 3.13 m/s, 337° | 25 W/m² | - |
| 1778025738 | 10.56° C | 79% | 1009.8 hPa | 0 mm | 2.68 m/s, 352° | 25 W/m² | - |
| 1778025435 | 11.11° C | 79% | 1009.6 hPa | 0 mm | 3.58 m/s, 51° | 29 W/m² | - |
| 1778025132 | 11.11° C | 79% | 1009.5 hPa | 0 mm | 2.24 m/s, 30° | 37 W/m² | - |
| 1778024829 | 11.11° C | 79% | 1009.8 hPa | 0 mm | 4.92 m/s, 9° | 38 W/m² | - |
| 1778024527 | 11.11° C | 80% | 1009.4 hPa | 0 mm | 2.68 m/s, 67° | 42 W/m² | - |
| 1778024223 | 11.11° C | 79% | 1009.6 hPa | 0 mm | 2.68 m/s, 10° | 32 W/m² | - |
| 1778023921 | 11.11° C | 79% | 1009.9 hPa | 0 mm | 2.24 m/s, 14° | 27 W/m² | - |
| 1778023618 | 11.11° C | 79% | 1009.2 hPa | 0 mm | 4.02 m/s, 339° | 50 W/m² | - |
| 1778023315 | 11.11° C | 78% | 1009.4 hPa | 0 mm | 4.02 m/s, 3° | 36 W/m² | - |
| 1778023012 | 11.11° C | 78% | 1009.6 hPa | 0 mm | 3.58 m/s, 24° | 44 W/m² | - |
| 1778022711 | 11.67° C | 77% | 1009.7 hPa | 0 mm | 2.68 m/s, 1° | 48 W/m² | - |
* Rain latest hour (hover to see other rain measurements)
** Current wind speed in m/s (hover to see current wind gust speed)